Time;durP1;ratioP1;P1;durP2;ratioP2;P2;SDS_P1;SDS_P2;PMS_P1;PMS_P2;Temp;Humidity;BMP_temperature;BMP_pressure;BME280_temperature;BME280_humidity;BME280_pressure;Samples;Min_cycle;Max_cycle;Signal;HPM_P1;HPM_P2
2021/12/24 00:00:40;;;;;;;317.80;76.00;;;;;;;6.06;100.00;100473.25;5037470;28;20054;-48
2021/12/24 00:03:06;;;;;;;305.35;70.82;;;;;;;6.11;100.00;100482.47;5037655;28;20017;-45
2021/12/24 00:05:32;;;;;;;296.92;73.90;;;;;;;6.10;100.00;100478.16;5036849;28;20024;-48
2021/12/24 00:07:58;;;;;;;295.55;66.80;;;;;;;6.12;100.00;100478.00;5037640;28;20437;-47
2021/12/24 00:10:23;;;;;;;300.27;69.30;;;;;;;6.14;100.00;100476.91;5032386;28;20072;-46
2021/12/24 00:12:57;;;;;;;270.75;65.60;;;;;;;6.14;100.00;100473.41;5039107;28;20143;-51
2021/12/24 00:15:48;;;;;;;298.13;72.00;;;;;;;6.20;100.00;100474.66;5036045;28;20020;-47
2021/12/24 00:18:18;;;;;;;283.35;71.85;;;;;;;6.18;100.00;100484.56;5036523;28;20025;-48
2021/12/24 00:35:11;;;;;;;287.52;70.97;;;;;;;6.30;100.00;100465.69;5034998;28;20071;-47
2021/12/24 00:37:05;;;;;;;236.30;60.47;;;;;;;6.30;100.00;100452.44;5030847;28;20091;-49
2021/12/24 00:39:31;;;;;;;275.77;66.47;;;;;;;6.29;100.00;100452.59;5035027;28;20017;-48
2021/12/24 00:41:56;;;;;;;241.02;64.30;;;;;;;6.27;100.00;100458.03;5037154;28;20595;-47
2021/12/24 00:44:21;;;;;;;271.20;76.25;;;;;;;6.31;100.00;100451.47;5035446;28;20100;-48
2021/12/24 00:46:46;;;;;;;271.85;70.28;;;;;;;6.33;100.00;100453.97;5035083;28;20040;-49
2021/12/24 00:49:12;;;;;;;260.90;68.03;;;;;;;6.34;100.00;100455.63;5036139;28;20426;-46
2021/12/24 00:56:53;;;;;;;242.43;62.97;;;;;;;6.37;100.00;100443.91;5037413;28;20036;-49
2021/12/24 00:59:19;;;;;;;273.83;76.53;;;;;;;6.42;100.00;100446.97;5037117;28;20025;-47
2021/12/24 01:01:44;;;;;;;269.80;74.43;;;;;;;6.44;100.00;100442.34;5034299;28;20025;-49
2021/12/24 01:04:09;;;;;;;283.65;77.20;;;;;;;6.43;100.00;100446.84;5036562;28;20016;-49
2021/12/24 01:06:35;;;;;;;256.52;65.93;;;;;;;6.43;100.00;100444.19;5035792;28;20104;-49
2021/12/24 01:09:00;;;;;;;265.55;68.13;;;;;;;6.45;100.00;100444.88;5037405;28;20100;-47
2021/12/24 01:11:27;;;;;;;247.68;63.35;;;;;;;6.47;100.00;100442.06;5040740;28;20043;-51
2021/12/24 01:13:52;;;;;;;255.25;69.55;;;;;;;6.48;100.00;100441.06;5037490;28;20315;-49
2021/12/24 01:16:31;;;;;;;264.42;70.10;;;;;;;6.49;100.00;100440.94;5038705;28;20033;-48
2021/12/24 01:19:12;;;;;;;264.35;69.00;;;;;;;6.53;100.00;100433.53;5039327;28;20074;-46
2021/12/24 01:24:14;;;;;;;255.20;65.18;;;;;;;6.60;100.00;100437.28;5041333;28;20317;-48
2021/12/24 01:27:22;;;;;;;255.07;70.53;;;;;;;6.63;100.00;100431.66;5041569;28;20036;-46
2021/12/24 01:42:52;;;;;;;345.52;84.50;;;;;;;6.87;100.00;100441.78;5041157;28;20036;-48
2021/12/24 01:45:32;;;;;;;320.20;73.07;;;;;;;6.89;100.00;100434.50;5033433;28;20025;-48
2021/12/24 01:48:04;;;;;;;321.25;75.05;;;;;;;6.91;100.00;100445.81;5020344;28;20102;-47
2021/12/24 01:50:33;;;;;;;340.77;77.47;;;;;;;6.94;100.00;100444.66;5020820;28;20036;-48
2021/12/24 01:53:00;;;;;;;331.50;74.22;;;;;;;6.95;100.00;100435.72;5021809;28;20043;-46
2021/12/24 01:55:27;;;;;;;350.30;84.97;;;;;;;6.98;100.00;100434.59;5020576;28;20079;-49
2021/12/24 01:57:52;;;;;;;335.65;75.72;;;;;;;6.98;100.00;100432.78;5035784;28;20115;-46
2021/12/24 02:00:22;;;;;;;343.98;74.50;;;;;;;7.08;100.00;100433.56;5021447;28;20744;-49
2021/12/24 02:02:48;;;;;;;364.35;82.75;;;;;;;7.08;100.00;100433.56;5019485;28;20060;-50
2021/12/24 02:05:14;;;;;;;350.63;75.07;;;;;;;7.16;100.00;100431.97;5020959;28;20025;-47
2021/12/24 02:07:40;;;;;;;368.50;83.53;;;;;;;7.16;100.00;100430.16;5020058;28;20090;-49
2021/12/24 02:10:08;;;;;;;385.67;85.50;;;;;;;7.19;100.00;100426.38;5021604;28;20025;-48
2021/12/24 02:12:35;;;;;;;365.13;78.07;;;;;;;7.22;100.00;100421.59;5020519;28;20041;-47
2021/12/24 02:15:08;;;;;;;353.60;77.95;;;;;;;7.26;100.00;100424.78;5021162;28;20109;-48
2021/12/24 02:28:36;;;;;;;363.17;74.70;;;;;;;7.51;100.00;100430.34;5020876;28;20124;-46
2021/12/24 02:31:03;;;;;;;367.58;76.18;;;;;;;7.57;100.00;100432.38;5033984;28;20025;-46
2021/12/24 02:33:28;;;;;;;336.20;71.45;;;;;;;7.56;100.00;100439.53;5020186;28;20152;-46
2021/12/24 02:35:54;;;;;;;354.55;76.57;;;;;;;7.59;100.00;100433.09;5021151;28;20143;-50
2021/12/24 02:38:19;;;;;;;349.38;76.38;;;;;;;7.62;100.00;100428.31;5020405;28;20029;-49
2021/12/24 02:40:45;;;;;;;331.52;71.13;;;;;;;7.71;100.00;100425.72;5020055;28;20016;-49
2021/12/24 02:43:15;;;;;;;315.10;71.05;;;;;;;7.67;100.00;100422.50;5020640;28;20206;-45
2021/12/24 02:45:43;;;;;;;349.50;76.05;;;;;;;7.72;100.00;100422.91;5036869;28;20253;-48
2021/12/24 02:56:06;;;;;;;305.30;65.63;;;;;;;7.82;100.00;100412.16;5040123;28;20032;-47
2021/12/24 02:58:47;;;;;;;303.40;65.95;;;;;;;7.84;100.00;100410.19;5039792;28;20029;-50
2021/12/24 03:01:14;;;;;;;;;;;;;;;7.87;100.00;100414.38;5038672;28;20448;-51
2021/12/24 03:03:39;;;;;;;278.77;60.15;;;;;;;7.86;100.00;100408.25;5039163;28;19922;-47
2021/12/24 03:06:06;;;;;;;257.52;57.42;;;;;;;7.87;100.00;100411.72;5039957;28;20652;-46
2021/12/24 03:08:33;;;;;;;295.17;61.72;;;;;;;7.87;100.00;100409.88;5039841;28;20033;-47
2021/12/24 03:10:59;;;;;;;266.30;59.55;;;;;;;7.85;100.00;100410.03;5038615;28;20365;-46
2021/12/24 03:13:26;;;;;;;284.08;63.95;;;;;;;7.90;100.00;100414.91;5039195;28;20035;-46
2021/12/24 03:15:53;;;;;;;295.42;64.03;;;;;;;7.93;100.00;100413.78;5038085;28;20105;-48
2021/12/24 03:18:24;;;;;;;283.90;62.15;;;;;;;7.94;100.00;100418.94;5039409;28;20116;-50
2021/12/24 03:20:58;;;;;;;289.95;68.63;;;;;;;7.99;100.00;100414.00;5039211;28;20096;-50
2021/12/24 03:23:35;;;;;;;268.95;61.55;;;;;;;7.96;100.00;100408.97;5039441;28;20024;-46
2021/12/24 03:26:02;;;;;;;253.90;59.15;;;;;;;7.94;100.00;100418.09;5039680;28;20033;-48
2021/12/24 03:28:27;;;;;;;270.90;61.95;;;;;;;7.92;100.00;100401.47;5038980;28;20028;-45
2021/12/24 03:30:53;;;;;;;234.20;54.85;;;;;;;7.95;100.00;100419.75;5038679;28;20077;-46
2021/12/24 03:33:18;;;;;;;235.38;60.00;;;;;;;7.93;100.00;100421.75;5038425;28;20070;-49
2021/12/24 03:35:44;;;;;;;206.93;52.33;;;;;;;7.91;100.00;100419.25;5037233;28;20025;-46
2021/12/24 03:38:09;;;;;;;235.40;57.03;;;;;;;7.92;100.00;100415.56;5038674;28;20659;-50
2021/12/24 03:40:34;;;;;;;187.15;51.15;;;;;;;7.94;100.00;100421.59;5037778;28;20116;-49
2021/12/24 03:43:00;;;;;;;217.45;53.13;;;;;;;7.90;100.00;100422.06;5038569;28;20028;-45
2021/12/24 03:45:36;;;;;;;209.57;52.80;;;;;;;7.90;100.00;100427.38;5030635;28;20021;-45
2021/12/24 03:48:13;;;;;;;207.05;53.00;;;;;;;7.91;100.00;100424.56;5017527;28;20053;-49
2021/12/24 03:50:48;;;;;;;202.43;50.67;;;;;;;7.93;100.00;100417.25;5017206;28;20445;-48
2021/12/24 03:54:55;;;;;;;188.07;48.63;;;;;;;7.89;100.00;100423.88;5018376;28;20051;-47
2021/12/24 03:56:08;;;;;;;173.73;47.00;;;;;;;7.90;100.00;100427.38;5018479;28;20572;-47
2021/12/24 03:58:33;;;;;;;160.32;44.33;;;;;;;7.88;100.00;100429.34;5017401;28;20333;-46
2021/12/24 04:00:59;;;;;;;185.70;49.38;;;;;;;7.89;100.00;100423.03;5017229;28;20029;-47
2021/12/24 04:03:24;;;;;;;173.05;44.60;;;;;;;7.88;100.00;100429.34;5018026;28;20032;-45
2021/12/24 04:05:49;;;;;;;148.43;39.20;;;;;;;7.91;100.00;100431.69;5017185;28;20374;-46
2021/12/24 04:08:15;;;;;;;145.00;41.72;;;;;;;7.90;100.00;100425.53;5017945;28;20033;-49
2021/12/24 04:10:40;;;;;;;149.65;37.75;;;;;;;7.83;100.00;100420.00;5017965;28;20025;-47
2021/12/24 04:13:12;;;;;;;142.68;39.08;;;;;;;7.76;100.00;100416.28;5018135;28;20029;-46
2021/12/24 04:15:38;;;;;;;117.80;35.97;;;;;;;7.73;100.00;100418.44;5016503;28;20025;-46
2021/12/24 04:18:13;;;;;;;127.38;37.00;;;;;;;7.75;100.00;100424.41;5017610;28;20025;-44
2021/12/24 04:26:14;;;;;;;115.88;36.95;;;;;;;7.81;100.00;100440.59;5017906;28;20118;-47
2021/12/24 04:28:39;;;;;;;123.45;34.03;;;;;;;7.80;100.00;100435.44;5017679;28;20061;-46
2021/12/24 04:31:04;;;;;;;127.28;36.05;;;;;;;7.81;100.00;100435.28;5017003;28;20072;-46
2021/12/24 04:33:35;;;;;;;125.35;36.35;;;;;;;7.80;100.00;100438.91;5016961;28;20018;-45
2021/12/24 04:36:18;;;;;;;;;;;;;;;7.84;100.00;100434.97;4981559;28;1060504;-46
2021/12/24 05:03:13;;;;;;;115.85;29.35;;;;;;;7.79;100.00;100429.28;5022387;28;20048;-47
2021/12/24 05:05:48;;;;;;;94.40;28.98;;;;;;;7.81;100.00;100427.31;5022129;28;20033;-45
2021/12/24 05:08:25;;;;;;;101.93;26.85;;;;;;;7.78;100.00;100419.63;5022474;28;20026;-45
2021/12/24 05:10:52;;;;;;;102.57;26.95;;;;;;;7.78;100.00;100422.28;5022142;28;20389;-46
2021/12/24 05:13:18;;;;;;;104.82;27.75;;;;;;;7.78;100.00;100426.78;5022340;28;20565;-47
2021/12/24 05:15:47;;;;;;;79.45;22.02;;;;;;;7.76;100.00;100426.94;5023130;28;20151;-46
2021/12/24 05:23:22;;;;;;;101.97;26.30;;;;;;;7.73;100.00;100429.88;5042569;28;20036;-45
2021/12/24 05:25:50;;;;;;;91.50;24.25;;;;;;;7.71;100.00;100428.38;5042234;28;20036;-45
2021/12/24 05:28:17;;;;;;;95.07;21.85;;;;;;;7.70;100.00;100430.19;5040619;28;20514;-48
2021/12/24 05:30:42;;;;;;;81.18;22.02;;;;;;;7.70;100.00;100437.31;5040037;28;20028;-46
2021/12/24 05:33:12;;;;;;;97.85;24.10;;;;;;;7.66;100.00;100434.16;5041346;28;20048;-49
2021/12/24 05:35:37;;;;;;;85.60;22.67;;;;;;;7.64;100.00;100430.81;5039836;28;20115;-46
2021/12/24 05:38:03;;;;;;;83.82;22.40;;;;;;;7.63;100.00;100435.28;5041739;28;20521;-50
2021/12/24 05:40:28;;;;;;;90.43;22.50;;;;;;;7.62;100.00;100440.72;5041090;28;20721;-45
2021/12/24 05:42:53;;;;;;;79.95;23.90;;;;;;;7.59;100.00;100438.41;5042340;28;20021;-45
2021/12/24 05:45:18;;;;;;;93.97;23.45;;;;;;;7.63;100.00;100451.22;5032679;28;20026;-48
2021/12/24 05:47:44;;;;;;;85.68;22.92;;;;;;;7.58;100.00;100445.53;5021297;28;20029;-45
2021/12/24 05:50:09;;;;;;;88.88;20.35;;;;;;;7.60;100.00;100443.56;5021607;28;20319;-47
2021/12/24 05:52:35;;;;;;;81.90;20.33;;;;;;;7.61;100.00;100447.06;5021331;28;20399;-46
2021/12/24 05:55:00;;;;;;;78.13;21.65;;;;;;;7.61;100.00;100449.72;5021421;28;20109;-47
2021/12/24 05:57:27;;;;;;;95.80;21.55;;;;;;;7.62;100.00;100454.03;5021716;28;20014;-46
2021/12/24 05:59:53;;;;;;;71.75;20.10;;;;;;;7.61;100.00;100455.84;5020954;28;20743;-45
2021/12/24 06:02:18;;;;;;;75.35;20.30;;;;;;;7.58;100.00;100453.50;5020837;28;20013;-48
2021/12/24 06:04:44;;;;;;;95.32;20.98;;;;;;;7.55;100.00;100453.81;5020056;28;20043;-45
2021/12/24 06:07:09;;;;;;;89.20;20.50;;;;;;;7.58;100.00;100457.97;5021048;28;20032;-45
2021/12/24 06:09:34;;;;;;;80.55;19.83;;;;;;;7.55;100.00;100455.63;5020149;28;20482;-46
2021/12/24 06:12:00;;;;;;;84.18;20.35;;;;;;;7.53;100.00;100458.44;5036790;28;20124;-46
2021/12/24 06:14:25;;;;;;;69.00;20.52;;;;;;;7.54;100.00;100461.94;5040693;28;20029;-47
2021/12/24 06:17:00;;;;;;;75.82;20.15;;;;;;;7.55;100.00;100455.63;5039257;28;20039;-45
2021/12/24 06:19:26;;;;;;;64.32;20.38;;;;;;;7.54;100.00;100467.25;5040446;28;20029;-45
2021/12/24 06:21:52;;;;;;;94.53;21.25;;;;;;;7.56;100.00;100462.63;5040102;28;20029;-46
2021/12/24 06:24:19;;;;;;;87.38;23.38;;;;;;;7.53;100.00;100453.13;5040761;28;20033;-46
2021/12/24 06:26:44;;;;;;;78.40;20.25;;;;;;;7.50;100.00;100460.56;5039977;28;20044;-46
2021/12/24 06:29:10;;;;;;;88.82;21.70;;;;;;;7.49;100.00;100464.22;5040641;28;20086;-46
2021/12/24 06:31:35;;;;;;;66.10;19.88;;;;;;;7.49;100.00;100462.38;5037330;28;20078;-48
2021/12/24 06:34:01;;;;;;;71.22;19.13;;;;;;;7.51;100.00;100464.91;5039567;28;20009;-45
2021/12/24 06:36:26;;;;;;;85.63;22.88;;;;;;;7.51;100.00;100468.38;5038853;28;20041;-49
2021/12/24 06:38:52;;;;;;;73.60;21.40;;;;;;;7.50;100.00;100458.72;5039498;28;20052;-46
2021/12/24 06:41:17;;;;;;;82.57;21.23;;;;;;;7.50;100.00;100466.69;5037361;28;20315;-49
2021/12/24 06:43:42;;;;;;;77.50;20.02;;;;;;;7.47;100.00;100454.56;5038062;28;20036;-47
2021/12/24 06:46:12;;;;;;;92.82;21.35;;;;;;;7.47;100.00;100451.06;5038072;28;20031;-46
2021/12/24 06:48:37;;;;;;;70.43;19.83;;;;;;;7.47;100.00;100456.38;5038873;28;20037;-49
2021/12/24 06:51:03;;;;;;;73.05;20.15;;;;;;;7.45;100.00;100450.38;5039537;28;20098;-49
2021/12/24 06:53:28;;;;;;;81.85;22.08;;;;;;;7.45;100.00;100447.72;5040379;28;20048;-46
2021/12/24 06:55:53;;;;;;;77.95;19.38;;;;;;;7.43;100.00;100450.53;5039303;28;20108;-45
2021/12/24 06:58:19;;;;;;;79.85;20.85;;;;;;;7.43;100.00;100455.88;5040279;28;20032;-46
2021/12/24 07:00:44;;;;;;;82.55;20.77;;;;;;;7.43;100.00;100457.66;5038933;28;20036;-47
2021/12/24 07:03:10;;;;;;;67.18;18.70;;;;;;;7.39;100.00;100457.13;5038185;28;20025;-50
2021/12/24 07:05:35;;;;;;;66.15;20.25;;;;;;;7.40;100.00;100458.81;5033628;28;20044;-47
2021/12/24 07:08:01;;;;;;;84.00;20.13;;;;;;;7.41;100.00;100454.31;5019388;28;20032;-47
2021/12/24 07:10:26;;;;;;;75.40;20.38;;;;;;;7.38;100.00;100442.19;5019948;28;20037;-47
2021/12/24 07:12:52;;;;;;;71.38;20.30;;;;;;;7.42;100.00;100448.03;5019622;28;20033;-45
2021/12/24 07:15:17;;;;;;;84.35;21.88;;;;;;;7.39;100.00;100449.16;5018752;28;20124;-47
2021/12/24 07:17:43;;;;;;;91.28;21.83;;;;;;;7.40;100.00;100449.97;5019435;28;20374;-48
2021/12/24 07:20:09;;;;;;;80.00;21.00;;;;;;;7.40;100.00;100450.84;5020023;28;20405;-46
2021/12/24 07:22:34;;;;;;;85.88;21.45;;;;;;;7.41;100.00;100454.31;5019408;28;20386;-47
2021/12/24 07:25:00;;;;;;;89.47;22.50;;;;;;;7.40;100.00;100461.47;5017921;28;20021;-46
2021/12/24 07:27:25;;;;;;;66.18;18.60;;;;;;;7.43;100.00;100462.97;5020090;28;20765;-47
2021/12/24 07:29:51;;;;;;;82.07;23.05;;;;;;;7.44;100.00;100468.13;5019287;28;20025;-46
2021/12/24 07:32:16;;;;;;;77.47;20.17;;;;;;;7.42;100.00;100463.97;5018951;28;20075;-45
2021/12/24 07:34:41;;;;;;;68.20;19.77;;;;;;;7.43;100.00;100470.94;5021807;28;20041;-49
2021/12/24 07:37:07;;;;;;;69.40;20.80;;;;;;;7.40;100.00;100474.75;5031217;28;20570;-46
2021/12/24 07:39:32;;;;;;;82.63;21.63;;;;;;;7.42;100.00;100472.78;5038055;28;20033;-47
2021/12/24 07:41:57;;;;;;;79.30;20.75;;;;;;;7.41;100.00;100464.94;5026251;28;20037;-49
2021/12/24 07:44:22;;;;;;;79.55;20.63;;;;;;;7.42;100.00;100463.97;5035912;28;20029;-49
2021/12/24 07:46:54;;;;;;;65.63;19.27;;;;;;;7.43;100.00;100463.84;5017231;28;20037;-48
2021/12/24 07:52:22;;;;;;;74.30;19.15;;;;;;;7.49;100.00;100467.69;5018625;28;20366;-47
2021/12/24 07:54:46;;;;;;;85.63;20.73;;;;;;;7.48;100.00;100468.66;5017136;28;20052;-46
2021/12/24 07:57:12;;;;;;;;;;;;;;;7.54;100.00;100475.22;5019736;28;20022;-50
2021/12/24 07:59:40;;;;;;;85.80;19.90;;;;;;;7.53;100.00;100474.38;5017610;28;19913;-49
2021/12/24 08:02:15;;;;;;;71.85;17.92;;;;;;;7.55;100.00;100471.56;5018557;28;20025;-50
2021/12/24 08:04:42;;;;;;;68.63;18.08;;;;;;;7.54;100.00;100473.41;5017768;28;20652;-48
2021/12/24 08:07:08;;;;;;;62.30;18.50;;;;;;;7.56;100.00;100468.75;5019379;28;20044;-50
2021/12/24 08:09:37;;;;;;;71.57;20.60;;;;;;;7.59;100.00;100472.94;5017756;28;20091;-48
2021/12/24 08:12:03;;;;;;;72.55;18.77;;;;;;;7.59;100.00;100468.47;5018908;28;20115;-49
2021/12/24 08:14:28;;;;;;;76.28;18.50;;;;;;;7.59;100.00;100467.63;5018483;28;20469;-48
2021/12/24 08:16:54;;;;;;;71.13;17.27;;;;;;;7.62;100.00;100470.81;5030302;28;20071;-47
2021/12/24 08:19:19;;;;;;;70.72;19.70;;;;;;;7.61;100.00;100470.97;5038240;28;20281;-50
2021/12/24 08:21:45;;;;;;;72.20;18.90;;;;;;;7.61;100.00;100466.47;5037701;28;20284;-48
2021/12/24 08:24:11;;;;;;;71.95;17.98;;;;;;;7.59;100.00;100457.84;5038182;28;20036;-48
2021/12/24 08:26:36;;;;;;;76.00;18.77;;;;;;;7.59;100.00;100463.16;5038139;28;20094;-46
2021/12/24 08:29:02;;;;;;;78.80;17.27;;;;;;;7.61;100.00;100458.50;5038709;28;20548;-48
2021/12/24 08:31:27;;;;;;;66.07;19.10;;;;;;;7.58;100.00;100444.69;5036619;28;20036;-47
2021/12/24 08:33:53;;;;;;;74.35;17.52;;;;;;;7.63;100.00;100466.34;5038351;28;20031;-49
2021/12/24 08:36:18;;;;;;;73.43;19.85;;;;;;;7.61;100.00;100460.34;5037485;28;20745;-49
2021/12/24 08:38:43;;;;;;;77.82;20.10;;;;;;;7.59;100.00;100463.16;5037567;28;20040;-50
2021/12/24 08:41:08;;;;;;;86.30;20.80;;;;;;;7.60;100.00;100458.66;5038516;28;20025;-45
2021/12/24 08:43:34;;;;;;;83.68;19.75;;;;;;;7.63;100.00;100469.00;5034694;28;20078;-46
2021/12/24 08:45:59;;;;;;;63.63;18.90;;;;;;;7.64;100.00;100462.69;5035953;28;20107;-51
2021/12/24 08:48:25;;;;;;;81.68;19.13;;;;;;;7.64;100.00;100478.66;5037999;28;20081;-46
2021/12/24 08:50:50;;;;;;;74.55;19.17;;;;;;;7.64;100.00;100457.38;5037646;28;20032;-47
2021/12/24 08:53:16;;;;;;;82.78;19.95;;;;;;;7.64;100.00;100465.38;5037414;28;20020;-50
2021/12/24 08:55:42;;;;;;;61.35;16.45;;;;;;;7.65;100.00;100451.06;5037692;28;20025;-50
2021/12/24 08:58:07;;;;;;;78.53;18.52;;;;;;;7.64;100.00;100446.75;5038000;28;20259;-47
2021/12/24 09:00:34;;;;;;;73.95;19.25;;;;;;;7.71;100.00;100449.66;5035810;28;20063;-50
2021/12/24 09:03:01;;;;;;;66.03;17.23;;;;;;;7.74;100.00;100452.84;5036938;28;20183;-49
2021/12/24 09:05:27;;;;;;;80.50;19.55;;;;;;;7.79;100.00;100455.00;5037491;28;20021;-48
2021/12/24 09:07:52;;;;;;;63.22;15.73;;;;;;;7.77;100.00;100457.84;5035576;28;20033;-46
2021/12/24 09:10:17;;;;;;;82.68;20.55;;;;;;;7.80;100.00;100451.38;5037777;28;20127;-50
2021/12/24 09:12:43;;;;;;;70.47;17.63;;;;;;;7.83;100.00;100457.22;5037576;28;20021;-45
2021/12/24 09:15:11;;;;;;;66.82;18.63;;;;;;;7.84;100.00;100455.38;5036397;28;20033;-47
2021/12/24 09:17:37;;;;;;;68.38;17.80;;;;;;;7.83;100.00;100451.91;5037257;28;20104;-47
2021/12/24 09:20:04;;;;;;;69.70;17.80;;;;;;;7.82;100.00;100458.22;5037661;28;20338;-48
2021/12/24 09:22:33;;;;;;;64.97;17.55;;;;;;;7.80;100.00;100457.53;5036399;28;20059;-47
2021/12/24 09:24:59;;;;;;;79.88;19.25;;;;;;;7.81;100.00;100453.06;5037818;28;20033;-46
2021/12/24 09:27:25;;;;;;;66.38;17.02;;;;;;;7.79;100.00;100457.66;5038135;28;20040;-45
2021/12/24 09:29:50;;;;;;;70.05;17.55;;;;;;;7.79;100.00;100457.66;5035956;28;20418;-49
2021/12/24 09:32:16;;;;;;;65.68;17.25;;;;;;;7.80;100.00;100451.38;5041208;28;20520;-50
2021/12/24 09:34:41;;;;;;;68.72;17.17;;;;;;;7.76;100.00;100445.53;5040188;28;20032;-51
2021/12/24 09:37:07;;;;;;;67.82;18.05;;;;;;;7.75;100.00;100443.84;5040289;28;20437;-49
2021/12/24 09:39:32;;;;;;;75.38;17.55;;;;;;;7.80;100.00;100448.72;5040921;28;20047;-48
2021/12/24 09:42:00;;;;;;;89.93;17.25;;;;;;;7.82;100.00;100458.22;5042045;28;20383;-50
2021/12/24 09:44:27;;;;;;;75.88;18.35;;;;;;;7.85;100.00;100460.56;5040973;28;20374;-50
2021/12/24 09:46:54;;;;;;;80.30;18.70;;;;;;;7.87;100.00;100456.91;5040668;28;20463;-47
2021/12/24 09:49:20;;;;;;;65.78;17.75;;;;;;;7.87;100.00;100463.06;5040289;28;20055;-48
2021/12/24 09:51:50;;;;;;;73.35;17.65;;;;;;;7.88;100.00;100450.63;5039350;28;20480;-50
2021/12/24 09:54:18;;;;;;;66.38;16.20;;;;;;;7.89;100.00;100452.28;5039259;28;20112;-46
2021/12/24 09:56:45;;;;;;;70.80;17.73;;;;;;;7.88;100.00;100451.44;5040596;28;20056;-51
2021/12/24 09:59:11;;;;;;;73.10;16.45;;;;;;;7.88;100.00;100443.47;5041428;28;20021;-46
2021/12/24 10:01:41;;;;;;;67.93;15.32;;;;;;;7.88;100.00;100445.31;5037378;28;20021;-50
2021/12/24 10:04:14;;;;;;;53.50;15.75;;;;;;;7.85;100.00;100444.59;5040827;28;20021;-48
2021/12/24 10:06:52;;;;;;;73.25;16.27;;;;;;;7.88;100.00;100446.13;5038560;28;20112;-50
2021/12/24 10:09:20;;;;;;;72.38;17.98;;;;;;;7.89;100.00;100444.31;5041243;28;20025;-50
2021/12/24 10:11:56;;;;;;;68.53;15.60;;;;;;;7.88;100.00;100432.00;5039636;28;20453;-49
2021/12/24 10:14:30;;;;;;;60.55;17.05;;;;;;;7.89;100.00;100444.31;5039505;28;20025;-47
2021/12/24 10:16:55;;;;;;;72.85;19.80;;;;;;;7.91;100.00;100440.50;5026602;28;20092;-47
2021/12/24 10:19:21;;;;;;;73.78;17.85;;;;;;;7.97;100.00;100439.88;5016320;28;20057;-50
2021/12/24 10:21:56;;;;;;;66.65;15.90;;;;;;;8.03;100.00;100446.44;5036759;28;20064;-49
2021/12/24 10:24:23;;;;;;;82.07;19.38;;;;;;;8.17;100.00;100442.38;5038552;28;20021;-49
2021/12/24 10:26:51;;;;;;;73.75;18.98;;;;;;;8.29;100.00;100446.44;5040279;28;20492;-48
2021/12/24 10:29:38;;;;;;;89.53;22.80;;;;;;;8.33;100.00;100446.94;5040258;28;20060;-48
2021/12/24 10:32:10;;;;;;;83.15;21.83;;;;;;;8.31;100.00;100446.28;5039837;28;20086;-48
2021/12/24 10:34:37;;;;;;;76.35;20.17;;;;;;;8.30;100.00;100444.59;5038619;28;20357;-45
2021/12/24 10:37:12;;;;;;;76.53;19.60;;;;;;;8.33;100.00;100441.63;5039959;28;20160;-47
2021/12/24 10:39:42;;;;;;;79.00;19.20;;;;;;;8.29;100.00;100435.78;5039006;28;20170;-48
2021/12/24 10:42:12;;;;;;;80.93;20.05;;;;;;;8.30;100.00;100423.31;5038308;28;20243;-45
2021/12/24 10:44:39;;;;;;;73.68;20.45;;;;;;;8.27;100.00;100435.13;5038533;28;20024;-47
2021/12/24 10:47:22;;;;;;;74.05;19.20;;;;;;;8.28;100.00;100434.13;5040105;28;20016;-46
2021/12/24 10:55:35;;;;;;;87.80;21.00;;;;;;;8.25;100.00;100433.59;5039317;28;20527;-49
2021/12/24 10:58:01;;;;;;;70.32;19.35;;;;;;;8.22;100.00;100435.56;5039840;28;20142;-48
2021/12/24 11:00:35;;;;;;;72.05;19.75;;;;;;;8.16;100.00;100427.38;5039561;28;20024;-50
2021/12/24 11:03:04;;;;;;;84.85;21.17;;;;;;;8.12;100.00;100429.53;5039662;28;20044;-49
2021/12/24 11:05:38;;;;;;;72.18;21.20;;;;;;;8.13;100.00;100436.53;5038098;28;20024;-46
2021/12/24 11:08:08;;;;;;;80.38;18.80;;;;;;;8.11;100.00;100435.00;5039911;28;20124;-50
2021/12/24 11:10:37;;;;;;;92.47;22.67;;;;;;;8.11;100.00;100430.53;5039511;28;20024;-47
2021/12/24 11:13:10;;;;;;;71.72;20.52;;;;;;;8.09;100.00;100423.69;5039027;28;20032;-47
2021/12/24 11:15:43;;;;;;;77.47;20.63;;;;;;;8.09;100.00;100423.69;5032261;28;20342;-49
2021/12/24 11:18:14;;;;;;;77.40;20.45;;;;;;;8.12;100.00;100426.03;5037930;28;20035;-48
2021/12/24 11:20:40;;;;;;;61.38;18.48;;;;;;;8.11;100.00;100425.22;5039053;28;20094;-49
2021/12/24 11:23:14;;;;;;;77.53;19.30;;;;;;;8.14;100.00;100432.03;5038718;28;20100;-49
2021/12/24 11:26:17;;;;;;;83.43;22.63;;;;;;;8.14;100.00;100432.03;5039494;28;20021;-49
2021/12/24 11:28:43;;;;;;;79.07;21.00;;;;;;;8.12;100.00;100432.19;5017028;28;20067;-46
2021/12/24 11:31:17;;;;;;;87.70;21.45;;;;;;;8.14;100.00;100418.72;5038352;28;20029;-47
2021/12/24 11:33:45;;;;;;;75.55;20.10;;;;;;;8.21;100.00;100433.94;5036479;28;20408;-46
2021/12/24 11:36:13;;;;;;;77.25;21.42;;;;;;;8.27;100.00;100431.63;5034936;28;20485;-44
2021/12/24 11:38:45;;;;;;;78.05;21.17;;;;;;;8.32;100.00;100427.50;5036810;28;20040;-45
2021/12/24 11:41:13;;;;;;;;;;;;;;;8.40;100.00;100438.19;5038695;28;20167;-49
2021/12/24 11:43:43;;;;;;;84.85;21.38;;;;;;;8.43;100.00;100434.41;5039027;28;19912;-46
2021/12/24 11:46:11;;;;;;;91.18;21.98;;;;;;;8.45;100.00;100429.75;5038156;28;20020;-46
2021/12/24 11:48:37;;;;;;;69.45;20.52;;;;;;;8.49;100.00;100425.81;5036810;28;20025;-47
2021/12/24 11:51:07;;;;;;;83.20;21.77;;;;;;;8.52;100.00;100425.50;5038616;28;20066;-45
2021/12/24 11:53:33;;;;;;;86.10;20.15;;;;;;;8.52;100.00;100419.31;5035044;28;20050;-48
2021/12/24 11:56:06;;;;;;;69.85;20.33;;;;;;;8.51;100.00;100410.50;5038821;28;20064;-46
2021/12/24 11:58:32;;;;;;;75.38;20.75;;;;;;;8.56;100.00;100423.34;5037995;28;20081;-48
2021/12/24 12:01:03;;;;;;;89.20;22.00;;;;;;;8.57;100.00;100422.34;5038199;28;20082;-49
2021/12/24 12:03:49;;;;;;;68.63;19.98;;;;;;;8.56;100.00;100413.53;5036520;28;20063;-50
2021/12/24 12:06:17;;;;;;;74.85;20.67;;;;;;;8.58;100.00;100414.19;5035505;28;20025;-47
2021/12/24 12:08:44;;;;;;;76.38;23.80;;;;;;;8.61;100.00;100417.56;5038112;28;20037;-49
2021/12/24 12:11:32;;;;;;;91.10;23.40;;;;;;;8.63;100.00;100416.38;5038908;28;20115;-48
2021/12/24 12:14:01;;;;;;;79.55;21.23;;;;;;;8.65;100.00;100413.56;5038917;28;20462;-47
2021/12/24 12:16:47;;;;;;;78.95;22.88;;;;;;;8.63;100.00;100410.25;5033942;28;20107;-45
2021/12/24 12:20:07;;;;;;;89.25;22.20;;;;;;;8.63;100.00;100400.41;5033637;28;20320;-45
2021/12/24 12:22:19;;;;;;;79.57;22.77;;;;;;;8.65;100.00;100400.25;5031750;28;20079;-49
2021/12/24 12:24:58;;;;;;;81.95;22.13;;;;;;;8.68;100.00;100402.59;5037525;28;20045;-46
2021/12/24 12:27:36;;;;;;;75.28;21.35;;;;;;;8.70;100.00;100401.44;5038063;28;20032;-45
2021/12/24 12:30:19;;;;;;;76.60;23.25;;;;;;;8.69;100.00;100402.44;5037667;28;20031;-44
2021/12/24 12:32:45;;;;;;;79.95;21.92;;;;;;;8.69;100.00;100407.78;5036635;28;20491;-48
2021/12/24 12:35:11;;;;;;;77.05;22.38;;;;;;;8.70;100.00;100408.59;5038024;28;20029;-48
2021/12/24 12:37:47;;;;;;;81.50;21.85;;;;;;;8.68;100.00;100405.28;5035256;28;20139;-48
2021/12/24 12:40:12;;;;;;;78.85;23.13;;;;;;;8.68;100.00;100408.75;5018407;28;20048;-44
2021/12/24 12:45:17;;;;;;;78.68;21.52;;;;;;;8.72;100.00;100401.28;5017713;28;20022;-45
2021/12/24 12:47:53;;;;;;;79.18;22.38;;;;;;;8.72;100.00;100406.59;5018104;28;20377;-49
2021/12/24 12:50:19;;;;;;;83.22;23.00;;;;;;;8.70;100.00;100400.63;5018188;28;20091;-45
2021/12/24 12:52:45;;;;;;;75.70;19.30;;;;;;;8.70;100.00;100412.09;5017705;28;20199;-48